Time;durP1;ratioP1;P1;durP2;ratioP2;P2;SDS_P1;SDS_P2;PMS_P1;PMS_P2;Temp;Humidity;BMP_temperature;BMP_pressure;BME280_temperature;BME280_humidity;BME280_pressure;Samples;Min_cycle;Max_cycle;Signal;HPM_P1;HPM_P2
2021/12/28 00:01:15;;;;;;;;;;;;;;;-7.16;100.00;99855.42;1660090;86;21139;-67
2021/12/28 00:03:43;;;;;;;;;;;;;;;-7.15;100.00;99853.59;1660017;86;20129;-67
2021/12/28 00:06:10;;;;;;;;;;;;;;;-7.15;100.00;99851.73;1638102;86;20478;-67
2021/12/28 00:08:36;;;;;;;;;;;;;;;-7.13;100.00;99851.55;1660076;86;20102;-67
2021/12/28 00:11:04;;;;;;;;;;;;;;;-7.15;100.00;99856.25;1660214;86;20098;-67
2021/12/28 00:13:33;;;;;;;;;;;;;;;-7.16;100.00;99859.94;1660355;86;21172;-67
2021/12/28 00:17:58;;;;;;;;;;;;;;;-7.14;100.00;99855.23;1660130;85;20106;-67
2021/12/28 00:18:31;;;;;;;;;;;;;;;-7.13;100.00;99850.22;1646049;86;20107;-66
2021/12/28 00:20:59;;;;;;;;;;;;;;;-7.13;100.00;99857.71;1660309;86;20152;-67
2021/12/28 00:23:31;;;;;;;;;;;;;;;-7.15;100.00;99853.59;1659892;86;20146;-67
2021/12/28 00:25:56;;;;;;;;;;;;;;;-7.14;100.00;99855.23;1659865;86;21183;-67
2021/12/28 00:28:23;;;;;;;;;;;;;;;-7.14;100.00;99856.57;1660268;86;20445;-68
2021/12/28 00:30:50;;;;;;;;;;;;;;;-7.18;100.00;99853.46;1662198;86;20094;-68
2021/12/28 00:33:18;;;;;;;;;;;;;;;-7.21;100.00;99853.02;1660131;86;20614;-66
2021/12/28 00:35:44;;;;;;;;;;;;;;;-7.22;100.00;99853.53;1659995;85;20271;-67
2021/12/28 00:38:14;;;;;;;;;;;;;;;-7.24;100.00;99850.23;1656007;85;21145;-68
2021/12/28 00:40:41;;;;;;;;;;;;;;;-7.26;100.00;99854.11;1659997;86;20132;-67
2021/12/28 00:43:07;;;;;;;;;;;;;;;-7.27;100.00;99844.45;1653957;86;20187;-67
2021/12/28 00:45:34;;;;;;;;;;;;;;;-7.29;100.00;99845.16;1653798;87;20118;-67
2021/12/28 00:48:00;;;;;;;;;;;;;;;-7.30;100.00;99844.84;1653874;86;20090;-67
2021/12/28 00:50:28;;;;;;;;;;;;;;;-7.32;100.00;99846.37;1653784;85;21188;-67
2021/12/28 00:52:55;;;;;;;;;;;;;;;-7.35;100.00;99839.58;1654146;87;20479;-67
2021/12/28 00:55:22;;;;;;;;;;;;;;;-7.34;100.00;99843.06;1653898;86;20130;-67
2021/12/28 00:57:49;;;;;;;;;;;;;;;-7.35;100.00;99842.25;1653815;86;20964;-67
2021/12/28 01:00:18;;;;;;;;;;;;;;;-7.35;100.00;99838.24;1653840;86;20493;-67
2021/12/28 01:02:44;;;;;;;;;;;;;;;-7.35;100.00;99830.24;1654042;86;21121;-70
2021/12/28 01:05:11;;;;;;;;;;;;;;;-7.34;100.00;99829.73;1653832;87;20106;-68
2021/12/28 01:07:39;;;;;;;;;;;;;;;-7.35;100.00;99830.24;1654167;87;20158;-70
2021/12/28 01:10:07;;;;;;;;;;;;;;;-7.34;100.00;99830.56;1653939;87;20102;-70
2021/12/28 01:12:34;;;;;;;;;;;;;;;-7.33;100.00;99827.38;1654235;86;20127;-68
2021/12/28 01:15:00;;;;;;;;;;;;;;;-7.34;100.00;99825.22;1651693;86;21119;-68
2021/12/28 01:17:27;;;;;;;;;;;;;;;-7.33;100.00;99822.05;1647063;87;20119;-68
2021/12/28 01:19:53;;;;;;;;;;;;;;;-7.33;100.00;99820.20;1647141;86;20131;-68
2021/12/28 01:22:20;;;;;;;;;;;;;;;-7.28;100.00;99817.47;1647088;87;21515;-67
2021/12/28 01:24:46;;;;;;;;;;;;;;;-7.25;100.00;99813.08;1647101;87;20322;-67
2021/12/28 01:27:12;;;;;;;;;;;;;;;-7.24;100.00;99815.55;1647321;87;21785;-67
2021/12/28 01:29:38;;;;;;;;;;;;;;;-7.22;100.00;99814.02;1647188;86;20438;-67
2021/12/28 01:32:08;;;;;;;;;;;;;;;-7.20;100.00;99806.65;1647397;87;20155;-67
2021/12/28 01:34:35;;;;;;;;;;;;;;;-7.19;100.00;99810.97;1647189;86;20426;-67
2021/12/28 01:37:02;;;;;;;;;;;;;;;-7.20;100.00;99810.14;1647195;86;20138;-67
2021/12/28 01:39:28;;;;;;;;;;;;;;;-7.20;100.00;99810.66;1647176;86;21160;-67
2021/12/28 01:41:55;;;;;;;;;;;;;;;-7.18;100.00;99816.11;1647988;85;20451;-67
2021/12/28 01:44:22;;;;;;;;;;;;;;;-7.17;100.00;99805.75;1649823;87;20174;-69
2021/12/28 01:46:49;;;;;;;;;;;;;;;-7.16;100.00;99802.58;1649112;87;20082;-68
2021/12/28 01:49:16;;;;;;;;;;;;;;;-7.14;100.00;99808.54;1647169;86;20082;-68
2021/12/28 01:51:42;;;;;;;;;;;;;;;-7.13;100.00;99808.34;1647233;87;21158;-68
2021/12/28 01:54:08;;;;;;;;;;;;;;;-7.14;100.00;99815.21;1647059;86;20119;-67
2021/12/28 01:56:40;;;;;;;;;;;;;;;-7.12;100.00;99818.00;1647258;86;20146;-67
2021/12/28 01:59:08;;;;;;;;;;;;;;;-7.07;100.00;99818.24;1647056;87;20118;-67
2021/12/28 02:01:35;;;;;;;;;;;;;;;-7.07;100.00;99810.75;1647318;86;20098;-68
2021/12/28 02:04:02;;;;;;;;;;;;;;;-7.06;100.00;99805.22;1628476;87;21513;-68
2021/12/28 02:06:29;;;;;;;;;;;;;;;-7.04;100.00;99798.34;1647063;87;20090;-68
2021/12/28 02:08:55;;;;;;;;;;;;;;;-7.04;100.00;99791.67;1647314;87;20119;-67
2021/12/28 02:11:22;;;;;;;;;;;;;;;-7.05;100.00;99792.19;1647292;86;20122;-67
2021/12/28 02:13:49;;;;;;;;;;;;;;;-7.05;100.00;99792.19;1636907;87;20490;-66
2021/12/28 02:16:16;;;;;;;;;;;;;;;-7.06;100.00;99792.38;1639114;87;21118;-67
2021/12/28 02:18:42;;;;;;;;;;;;;;;-7.06;100.00;99786.53;1640592;87;20181;-67
2021/12/28 02:21:08;;;;;;;;;;;;;;;-7.05;100.00;99784.69;1637153;87;20468;-67
2021/12/28 02:23:35;;;;;;;;;;;;;;;-7.05;100.00;99786.84;1645372;86;20440;-67
2021/12/28 02:26:01;;;;;;;;;;;;;;;-7.04;100.00;99787.16;1648081;85;20155;-67
2021/12/28 02:28:27;;;;;;;;;;;;;;;-7.03;100.00;99782.65;1643546;86;20429;-67
2021/12/28 02:30:56;;;;;;;;;;;;;;;-6.98;100.00;99772.72;1646108;87;20091;-66
2021/12/28 02:33:26;;;;;;;;;;;;;;;-6.96;100.00;99772.84;1641102;86;20511;-67
2021/12/28 02:35:54;;;;;;;;;;;;;;;-6.95;100.00;99766.48;1633807;87;20128;-67
2021/12/28 02:38:20;;;;;;;;;;;;;;;-6.93;100.00;99767.62;1614902;88;20117;-67
2021/12/28 02:40:47;;;;;;;;;;;;;;;-6.93;100.00;99775.08;1625331;88;21777;-67
2021/12/28 02:43:15;;;;;;;;;;;;;;;-6.95;100.00;99777.16;1630649;87;20185;-65
2021/12/28 02:46:02;;;;;;;;;;;;;;;-6.96;100.00;99768.83;1625266;88;20144;-66
2021/12/28 02:48:28;;;;;;;;;;;;;;;-6.96;100.00;99758.67;1625119;88;20129;-65
2021/12/28 02:50:57;;;;;;;;;;;;;;;-6.96;100.00;99763.50;1625315;88;20092;-66
2021/12/28 02:53:24;;;;;;;;;;;;;;;-6.96;100.00;99758.16;1625262;87;21189;-66
2021/12/28 02:55:51;;;;;;;;;;;;;;;-6.93;100.00;99752.94;1625259;88;20108;-65
2021/12/28 02:58:30;;;;;;;;;;;;;;;-6.94;100.00;99768.12;1646593;85;20098;-65
2021/12/28 03:01:03;;;;;;;;;;;;;;;-6.94;100.00;99763.30;1626795;88;20181;-65
2021/12/28 03:03:31;;;;;;;;;;;;;;;-6.92;100.00;99766.56;1626536;88;20443;-65
2021/12/28 03:05:58;;;;;;;;;;;;;;;-6.94;100.00;99761.97;1626949;88;21104;-64
2021/12/28 03:08:25;;;;;;;;;;;;;;;-6.95;100.00;99766.99;1626505;88;20092;-66
2021/12/28 03:10:52;;;;;;;;;;;;;;;-6.97;100.00;99761.85;1626771;88;20462;-65
2021/12/28 03:13:22;;;;;;;;;;;;;;;-6.98;100.00;99750.86;1606756;88;20085;-65
2021/12/28 03:15:49;;;;;;;;;;;;;;;-6.99;100.00;99747.88;1626045;88;20160;-66
2021/12/28 03:18:16;;;;;;;;;;;;;;;-7.01;100.00;99746.74;1626726;88;21722;-67
2021/12/28 03:20:42;;;;;;;;;;;;;;;-7.01;100.00;99748.59;1626542;88;20127;-66
2021/12/28 03:23:08;;;;;;;;;;;;;;;-7.04;100.00;99745.80;1626525;88;20134;-66
2021/12/28 03:25:36;;;;;;;;;;;;;;;-7.04;100.00;99748.98;1626592;88;20128;-66
2021/12/28 03:28:04;;;;;;;;;;;;;;;-7.05;100.00;99748.66;1626798;88;20475;-65
2021/12/28 03:30:31;;;;;;;;;;;;;;;-7.06;100.00;99753.69;1626723;88;21744;-65
2021/12/28 03:32:57;;;;;;;;;;;;;;;-7.06;100.00;99755.84;1626468;88;20104;-65
2021/12/28 03:35:24;;;;;;;;;;;;;;;-7.05;100.00;99751.33;1626516;88;20468;-65
2021/12/28 03:37:50;;;;;;;;;;;;;;;-7.05;100.00;99750.00;1639000;87;20447;-65
2021/12/28 03:40:17;;;;;;;;;;;;;;;-7.05;100.00;99748.16;1640639;86;20452;-65
2021/12/28 03:42:44;;;;;;;;;;;;;;;-7.06;100.00;99755.84;1648681;87;21152;-66
2021/12/28 03:45:12;;;;;;;;;;;;;;;-7.08;100.00;99755.22;1643148;87;20102;-67
2021/12/28 03:47:41;;;;;;;;;;;;;;;-7.10;100.00;99759.11;1618569;88;20085;-66
2021/12/28 03:50:09;;;;;;;;;;;;;;;-7.11;100.00;99754.28;1625267;88;20396;-64
2021/12/28 03:52:35;;;;;;;;;;;;;;;-7.09;100.00;99754.08;1629579;87;20105;-66
2021/12/28 03:55:03;;;;;;;;;;;;;;;-7.10;100.00;99747.09;1644413;87;21160;-65
2021/12/28 03:57:29;;;;;;;;;;;;;;;-7.11;100.00;99748.12;1639414;87;20167;-67
2021/12/28 03:59:56;;;;;;;;;;;;;;;-7.09;100.00;99747.41;1625339;87;20097;-65
2021/12/28 04:02:22;;;;;;;;;;;;;;;-7.10;100.00;99745.25;1644063;85;22005;-64
2021/12/28 04:04:50;;;;;;;;;;;;;;;-7.12;100.00;99739.80;1648226;86;20425;-64
2021/12/28 04:07:20;;;;;;;;;;;;;;;-7.13;100.00;99734.15;1642202;86;22002;-64
2021/12/28 04:12:19;;;;;;;;;;;;;;;-7.15;100.00;99742.86;1647201;87;20144;-65
2021/12/28 04:14:45;;;;;;;;;;;;;;;-7.18;100.00;99743.25;1640067;87;20108;-65
2021/12/28 04:17:12;;;;;;;;;;;;;;;-7.20;100.00;99752.78;1640750;87;20164;-65
2021/12/28 04:19:38;;;;;;;;;;;;;;;-7.20;100.00;99750.11;1640266;86;21193;-65
2021/12/28 04:22:05;;;;;;;;;;;;;;;-7.19;100.00;99750.94;1642436;87;20106;-65
2021/12/28 04:24:31;;;;;;;;;;;;;;;-7.19;100.00;99739.76;1632205;87;20141;-64
2021/12/28 04:26:57;;;;;;;;;;;;;;;-7.18;100.00;99743.25;1652777;87;20110;-65
2021/12/28 04:29:24;;;;;;;;;;;;;;;-7.19;100.00;99746.94;1633586;87;20125;-64
2021/12/28 04:31:51;;;;;;;;;;;;;;;-7.22;100.00;99750.00;1625520;88;20601;-64
2021/12/28 04:34:19;;;;;;;;;;;;;;;-7.23;100.00;99741.17;1625156;88;20109;-64
2021/12/28 04:36:47;;;;;;;;;;;;;;;-7.21;100.00;99755.14;1625154;88;20134;-65
2021/12/28 04:39:13;;;;;;;;;;;;;;;-7.20;100.00;99753.30;1625059;88;20096;-67
2021/12/28 04:41:40;;;;;;;;;;;;;;;-7.22;100.00;99760.16;1625251;88;20104;-66
2021/12/28 04:44:09;;;;;;;;;;;;;;;-7.21;100.00;99765.81;1625153;88;21170;-64
2021/12/28 04:46:36;;;;;;;;;;;;;;;-7.22;100.00;99760.67;1626768;85;20162;-65
2021/12/28 04:49:03;;;;;;;;;;;;;;;-7.20;100.00;99756.79;1648197;87;20130;-64
2021/12/28 04:51:29;;;;;;;;;;;;;;;-7.19;100.00;99750.94;1651073;86;20090;-65
2021/12/28 04:53:56;;;;;;;;;;;;;;;-7.21;100.00;99739.64;1653100;86;20441;-65
2021/12/28 04:56:23;;;;;;;;;;;;;;;-7.24;100.00;99740.86;1653186;87;21148;-66
2021/12/28 04:58:50;;;;;;;;;;;;;;;-7.25;100.00;99738.38;1653044;87;20102;-68
2021/12/28 05:01:18;;;;;;;;;;;;;;;-7.28;100.00;99735.59;1653159;87;20114;-68
2021/12/28 05:03:45;;;;;;;;;;;;;;;-7.29;100.00;99743.28;1653179;86;20450;-68
2021/12/28 05:06:11;;;;;;;;;;;;;;;-7.27;100.00;99737.75;1653124;87;20090;-65
2021/12/28 05:08:39;;;;;;;;;;;;;;;-7.28;100.00;99739.59;1653150;85;21180;-67
2021/12/28 05:11:06;;;;;;;;;;;;;;;-7.29;100.00;99739.80;1653107;85;20130;-66
2021/12/28 05:13:32;;;;;;;;;;;;;;;-7.29;100.00;99745.12;1653085;87;20130;-65
2021/12/28 05:15:59;;;;;;;;;;;;;;;-7.29;100.00;99734.46;1653041;86;20127;-65
2021/12/28 05:18:26;;;;;;;;;;;;;;;-7.30;100.00;99727.48;1653294;86;20127;-65
2021/12/28 05:20:52;;;;;;;;;;;;;;;-7.31;100.00;99730.66;1653264;87;21913;-66
2021/12/28 05:23:18;;;;;;;;;;;;;;;-7.30;100.00;99742.97;1653259;87;20129;-65
2021/12/28 05:25:45;;;;;;;;;;;;;;;-7.28;100.00;99741.44;1653304;86;20409;-66
2021/12/28 05:28:11;;;;;;;;;;;;;;;-7.26;100.00;99740.23;1653297;87;20178;-64
2021/12/28 05:30:38;;;;;;;;;;;;;;;-7.26;100.00;99734.07;1653175;87;20118;-64
2021/12/28 05:33:04;;;;;;;;;;;;;;;-7.26;100.00;99739.41;1652591;85;21126;-67
2021/12/28 05:35:31;;;;;;;;;;;;;;;-7.26;100.00;99739.41;1649923;86;20425;-67
2021/12/28 05:37:57;;;;;;;;;;;;;;;-7.26;100.00;99742.89;1630602;87;20183;-64
2021/12/28 05:40:24;;;;;;;;;;;;;;;-7.26;100.00;99741.56;1647287;87;20102;-64
2021/12/28 05:42:50;;;;;;;;;;;;;;;-7.23;100.00;99733.17;1647726;87;20090;-65
2021/12/28 05:45:16;;;;;;;;;;;;;;;-7.22;100.00;99732.66;1650522;85;21763;-65
2021/12/28 05:47:43;;;;;;;;;;;;;;;-7.21;100.00;99733.80;1647234;87;20128;-64
2021/12/28 05:50:11;;;;;;;;;;;;;;;-7.22;100.00;99737.48;1647436;85;20463;-64
2021/12/28 05:52:38;;;;;;;;;;;;;;;-7.23;100.00;99740.34;1647443;87;20131;-65
2021/12/28 05:55:06;;;;;;;;;;;;;;;-7.24;100.00;99741.37;1647764;85;20199;-65
2021/12/28 05:57:33;;;;;;;;;;;;;;;-7.22;100.00;99748.16;1647717;87;21135;-65
2021/12/28 05:59:59;;;;;;;;;;;;;;;-7.23;100.00;99747.02;1649427;87;20094;-66
2021/12/28 06:02:25;;;;;;;;;;;;;;;-7.23;100.00;99755.02;1633104;87;20153;-66
2021/12/28 06:04:51;;;;;;;;;;;;;;;-7.24;100.00;99766.20;1626908;88;20128;-65
2021/12/28 06:07:18;;;;;;;;;;;;;;;-7.25;100.00;99762.39;1622859;87;20429;-64
2021/12/28 06:09:45;;;;;;;;;;;;;;;-7.23;100.00;99765.69;1642837;87;21131;-64
2021/12/28 06:12:11;;;;;;;;;;;;;;;-7.25;100.00;99757.87;1626545;88;20105;-68
2021/12/28 06:14:38;;;;;;;;;;;;;;;-7.25;100.00;99762.39;1643165;87;20091;-63
2021/12/28 06:17:04;;;;;;;;;;;;;;;-7.29;100.00;99763.29;1641585;87;20471;-65
2021/12/28 06:19:30;;;;;;;;;;;;;;;-7.24;100.00;99764.04;1626899;88;20084;-67
2021/12/28 06:21:58;;;;;;;;;;;;;;;-7.22;100.00;99762.00;1630445;87;21142;-64
2021/12/28 06:24:24;;;;;;;;;;;;;;;-7.22;100.00;99765.50;1638266;87;20129;-65
2021/12/28 06:26:51;;;;;;;;;;;;;;;-7.22;100.00;99762.00;1626669;88;20089;-65
2021/12/28 06:29:18;;;;;;;;;;;;;;;-7.23;100.00;99762.52;1626689;88;20173;-65
2021/12/28 06:31:44;;;;;;;;;;;;;;;-7.24;100.00;99768.05;1626492;88;20194;-66
2021/12/28 06:34:10;;;;;;;;;;;;;;;-7.25;100.00;99781.06;1606670;88;21142;-64
2021/12/28 06:36:37;;;;;;;;;;;;;;;-7.29;100.00;99769.14;1626564;88;20128;-64
2021/12/28 06:39:03;;;;;;;;;;;;;;;-7.32;100.00;99767.17;1626599;88;20164;-64
2021/12/28 06:41:30;;;;;;;;;;;;;;;-7.30;100.00;99770.98;1626531;88;20092;-64
2021/12/28 06:43:56;;;;;;;;;;;;;;;-7.28;100.00;99770.27;1626628;88;20128;-64
2021/12/28 06:46:22;;;;;;;;;;;;;;;-7.29;100.00;99773.14;1626488;88;21147;-65
2021/12/28 06:48:49;;;;;;;;;;;;;;;-7.25;100.00;99778.40;1626545;88;20121;-64
2021/12/28 06:51:15;;;;;;;;;;;;;;;-7.25;100.00;99765.88;1626498;88;20100;-65
2021/12/28 06:53:41;;;;;;;;;;;;;;;-7.25;100.00;99756.55;1642312;87;20621;-64
2021/12/28 06:56:08;;;;;;;;;;;;;;;-7.26;100.00;99754.08;1626552;88;20173;-65
2021/12/28 06:58:35;;;;;;;;;;;;;;;-7.27;100.00;99749.25;1626633;88;21147;-65
2021/12/28 07:01:03;;;;;;;;;;;;;;;-7.25;100.00;99741.05;1626464;88;20121;-66
2021/12/28 07:03:29;;;;;;;;;;;;;;;-7.26;100.00;99736.73;1626588;88;20440;-65
2021/12/28 07:05:55;;;;;;;;;;;;;;;-7.25;100.00;99738.38;1626611;88;20454;-65
2021/12/28 07:08:21;;;;;;;;;;;;;;;-7.23;100.00;99741.68;1626536;88;20125;-65
2021/12/28 07:10:48;;;;;;;;;;;;;;;-7.21;100.00;99732.46;1626611;88;21075;-65
2021/12/28 07:13:14;;;;;;;;;;;;;;;-7.18;100.00;99740.08;1626565;88;20085;-65
2021/12/28 07:15:41;;;;;;;;;;;;;;;-7.13;100.00;99742.98;1627625;87;20121;-67
2021/12/28 07:18:07;;;;;;;;;;;;;;;-7.09;100.00;99744.74;1643186;87;20083;-65
2021/12/28 07:20:35;;;;;;;;;;;;;;;-7.10;100.00;99744.42;1606622;88;37177;-65
2021/12/28 07:23:01;;;;;;;;;;;;;;;-7.09;100.00;99738.08;1650002;85;21745;-66
2021/12/28 07:25:29;;;;;;;;;;;;;;;-7.08;100.00;99739.21;1659939;85;20112;-66
2021/12/28 07:27:55;;;;;;;;;;;;;;;-7.10;100.00;99739.91;1651878;85;20139;-66
2021/12/28 07:30:22;;;;;;;;;;;;;;;-7.11;100.00;99742.78;1647240;87;20213;-76
2021/12/28 07:32:48;;;;;;;;;;;;;;;-7.09;100.00;99746.08;1652570;87;20149;-73
2021/12/28 07:35:14;;;;;;;;;;;;;;;-7.09;100.00;99747.41;1653210;87;20997;-73
2021/12/28 07:37:41;;;;;;;;;;;;;;;-7.10;100.00;99739.91;1652737;87;20102;-72
2021/12/28 07:40:08;;;;;;;;;;;;;;;-7.06;100.00;99737.17;1653051;87;20126;-71
2021/12/28 07:42:35;;;;;;;;;;;;;;;-7.05;100.00;99736.14;1652884;87;20598;-78
2021/12/28 07:45:06;;;;;;;;;;;;;;;-7.03;100.00;99737.28;1652215;87;20150;-76
2021/12/28 07:47:33;;;;;;;;;;;;;;;-7.00;100.00;99740.89;1652948;87;21069;-74
2021/12/28 07:49:59;;;;;;;;;;;;;;;-6.92;100.00;99733.20;1653041;87;20429;-75
2021/12/28 07:52:25;;;;;;;;;;;;;;;-6.87;100.00;99724.91;1652288;85;20079;-75
2021/12/28 07:54:53;;;;;;;;;;;;;;;-6.85;100.00;99731.39;1646900;86;20126;-75
2021/12/28 07:57:20;;;;;;;;;;;;;;;-6.83;100.00;99728.83;1646894;86;20115;-72
2021/12/28 07:59:46;;;;;;;;;;;;;;;-6.81;100.00;99724.63;1646836;87;21569;-82
2021/12/28 08:02:13;;;;;;;;;;;;;;;-6.82;100.00;99723.81;1651067;87;20169;-75
2021/12/28 08:04:39;;;;;;;;;;;;;;;-6.78;100.00;99722.90;1653039;87;20126;-86
2021/12/28 08:07:07;;;;;;;;;;;;;;;-6.76;99.98;99720.86;1653082;85;20115;-78
2021/12/28 08:09:34;;;;;;;;;;;;;;;-6.74;99.79;99722.30;1653081;86;20126;-75
2021/12/28 08:12:01;;;;;;;;;;;;;;;-6.73;99.73;99714.61;1645177;87;21054;-72
2021/12/28 08:14:27;;;;;;;;;;;;;;;-6.70;99.55;99712.05;1634771;86;20320;-68
2021/12/28 08:16:54;;;;;;;;;;;;;;;-6.71;99.10;99716.56;1626262;88;20486;-73
2021/12/28 08:19:22;;;;;;;;;;;;;;;-6.70;99.36;99710.71;1626428;88;20164;-71
2021/12/28 08:21:49;;;;;;;;;;;;;;;-6.68;99.24;99710.83;1634686;87;20193;-73
2021/12/28 08:24:15;;;;;;;;;;;;;;;-6.66;99.12;99698.09;1638124;87;21150;-72
2021/12/28 08:26:41;;;;;;;;;;;;;;;-6.67;98.45;99695.12;1626615;87;20120;-73
2021/12/28 08:29:07;;;;;;;;;;;;;;;-6.69;98.67;99701.17;1626421;88;20092;-72
2021/12/28 08:31:35;;;;;;;;;;;;;;;-6.69;98.53;99697.67;1626448;88;20117;-73
2021/12/28 08:34:02;;;;;;;;;;;;;;;-6.68;98.54;99694.80;1626457;88;20161;-72
2021/12/28 08:36:29;;;;;;;;;;;;;;;-6.64;98.57;99686.39;1632743;87;21978;-70
2021/12/28 08:38:55;;;;;;;;;;;;;;;-6.59;98.48;99687.95;1635235;87;20291;-71
2021/12/28 08:41:22;;;;;;;;;;;;;;;-6.60;98.17;99682.30;1626560;88;20120;-70
2021/12/28 08:43:49;;;;;;;;;;;;;;;-6.60;98.04;99676.44;1637896;85;20162;-71
2021/12/28 08:46:15;;;;;;;;;;;;;;;-6.58;98.32;99682.92;1639333;87;20116;-72
2021/12/28 08:48:44;;;;;;;;;;;;;;;-6.56;98.08;99682.20;1644494;87;20129;-72
2021/12/28 08:51:12;;;;;;;;;;;;;;;-6.55;97.95;99679.84;1650158;87;20107;-71
2021/12/28 08:53:39;;;;;;;;;;;;;;;-6.50;97.99;99672.87;1650528;85;20442;-71
2021/12/28 08:56:06;;;;;;;;;;;;;;;-6.47;97.73;99678.33;1629792;87;20204;-70
2021/12/28 08:58:32;;;;;;;;;;;;;;;-6.46;97.15;99678.12;1650089;85;20508;-72
2021/12/28 09:01:01;;;;;;;;;;;;;;;-6.45;97.12;99671.75;1650492;87;22356;-71
2021/12/28 09:03:28;;;;;;;;;;;;;;;-6.43;97.08;99666.21;1650304;87;20151;-70
2021/12/28 09:05:54;;;;;;;;;;;;;;;-6.42;96.95;99670.53;1650117;87;20131;-71
2021/12/28 09:08:23;;;;;;;;;;;;;;;-6.39;96.79;99670.12;1630005;87;20438;-71
2021/12/28 09:10:50;;;;;;;;;;;;;;;-6.38;97.09;99668.59;1649137;87;20148;-70
2021/12/28 09:13:17;;;;;;;;;;;;;;;-6.36;96.89;99664.38;1650719;87;21125;-71
2021/12/28 09:15:45;;;;;;;;;;;;;;;-6.38;96.31;99664.58;1650472;85;20175;-72
2021/12/28 09:18:13;;;;;;;;;;;;;;;-6.43;95.63;99659.02;1647218;87;20150;-71
2021/12/28 09:20:40;;;;;;;;;;;;;;;-6.44;95.91;99653.38;1650530;87;20200;-71
2021/12/28 09:23:07;;;;;;;;;;;;;;;-6.41;95.36;99656.15;1650544;85;20154;-73
2021/12/28 09:25:36;;;;;;;;;;;;;;;-6.43;95.32;99651.52;1653167;86;20079;-70
2021/12/28 09:28:03;;;;;;;;;;;;;;;-6.43;95.41;99640.84;1640849;87;20102;-71
2021/12/28 09:30:31;;;;;;;;;;;;;;;-6.44;95.18;99645.36;1633308;87;20133;-70
2021/12/28 09:32:57;;;;;;;;;;;;;;;-6.41;95.36;99641.45;1625259;88;20088;-68
2021/12/28 09:35:28;;;;;;;;;;;;;;;-6.41;95.27;99632.11;1624041;88;20217;-72
2021/12/28 09:37:56;;;;;;;;;;;;;;;-6.39;94.75;99639.41;1604497;88;21811;-69
2021/12/28 09:40:27;;;;;;;;;;;;;;;-6.41;94.47;99634.78;1638739;87;20130;-69
2021/12/28 09:43:01;;;;;;;;;;;;;;;-6.41;95.00;99630.77;1617155;87;20159;-69
2021/12/28 09:45:33;;;;;;;;;;;;;;;-6.35;95.50;99631.27;1647386;87;20472;-69
2021/12/28 09:48:03;;;;;;;;;;;;;;;-6.30;96.02;99634.14;1614350;87;20106;-70
2021/12/28 09:50:31;;;;;;;;;;;;;;;-6.24;95.36;99633.33;1642501;86;21158;-70
2021/12/28 09:53:04;;;;;;;;;;;;;;;-6.24;94.60;99634.66;1651640;86;20550;-70
2021/12/28 09:55:34;;;;;;;;;;;;;;;-6.23;94.80;99632.30;1653005;87;20505;-70
2021/12/28 09:58:04;;;;;;;;;;;;;;;-6.19;94.53;99634.05;1632233;85;20127;-73
2021/12/28 10:00:33;;;;;;;;;;;;;;;-6.18;94.48;99628.50;1650787;87;20127;-75
2021/12/28 10:03:03;;;;;;;;;;;;;;;-6.18;94.51;99624.48;1670502;85;21584;-78
2021/12/28 10:05:34;;;;;;;;;;;;;;;-6.17;93.98;99622.13;1680430;85;20431;-70
2021/12/28 10:08:07;;;;;;;;;;;;;;;-6.16;93.93;99628.30;1658224;85;20135;-68
2021/12/28 10:10:47;;;;;;;;;;;;;;;-6.16;93.96;99623.77;1680371;85;20128;-68
2021/12/28 10:13:22;;;;;;;;;;;;;;;-6.15;93.73;99622.74;1680641;85;20416;-69
2021/12/28 10:15:52;;;;;;;;;;;;;;;-6.15;93.39;99621.41;1680578;85;21102;-69
2021/12/28 10:18:21;;;;;;;;;;;;;;;-6.14;93.51;99612.36;1679921;85;20136;-69
2021/12/28 10:20:52;;;;;;;;;;;;;;;-6.12;93.27;99606.81;1680568;85;20136;-69
2021/12/28 10:23:21;;;;;;;;;;;;;;;-6.12;93.02;99596.13;1679499;85;20127;-69
2021/12/28 10:25:50;;;;;;;;;;;;;;;-6.10;93.31;99594.06;1679705;85;20127;-69
2021/12/28 10:28:22;;;;;;;;;;;;;;;-6.09;93.36;99593.04;1680567;85;21804;-68
2021/12/28 10:30:56;;;;;;;;;;;;;;;-6.08;92.25;99587.48;1659552;85;20100;-68
2021/12/28 10:33:25;;;;;;;;;;;;;;;-6.10;92.21;99580.19;1680659;85;20103;-70
2021/12/28 10:35:54;;;;;;;;;;;;;;;-6.11;92.24;99584.41;1680787;85;20151;-69
2021/12/28 10:38:27;;;;;;;;;;;;;;;-6.08;92.25;99579.47;1680161;85;20100;-69
2021/12/28 10:41:00;;;;;;;;;;;;;;;-6.05;92.10;99575.05;1676021;85;21137;-69
2021/12/28 10:43:43;;;;;;;;;;;;;;;-6.04;91.34;99582.03;1679981;85;20092;-68
2021/12/28 10:46:06;;;;;;;;;;;;;;;-6.05;91.25;99581.73;1673612;85;20100;-68
2021/12/28 10:48:41;;;;;;;;;;;;;;;-6.04;91.36;99585.22;1658549;85;20104;-68
2021/12/28 10:51:12;;;;;;;;;;;;;;;-6.04;90.91;99583.89;1679787;85;20427;-68
2021/12/28 10:56:31;;;;;;;;;;;;;;;-6.10;90.20;99586.05;1680633;85;20124;-67
2021/12/28 10:59:02;;;;;;;;;;;;;;;-6.11;89.69;99590.57;1658997;85;20448;-68
2021/12/28 11:01:32;;;;;;;;;;;;;;;-6.11;89.55;99583.89;1680253;85;20096;-65
2021/12/28 11:04:05;;;;;;;;;;;;;;;-6.10;89.69;99585.53;1679897;85;20104;-69
2021/12/28 11:06:34;;;;;;;;;;;;;;;-6.09;88.87;99579.16;1680786;85;21108;-68
2021/12/28 11:09:07;;;;;;;;;;;;;;;-6.06;89.04;99577.92;1680440;84;20124;-66
2021/12/28 11:11:33;;;;;;;;;;;;;;;-6.01;89.38;99576.27;1642615;85;20145;-68
2021/12/28 11:14:08;;;;;;;;;;;;;;;-5.96;89.17;99578.33;1626468;88;20080;-69
2021/12/28 11:16:39;;;;;;;;;;;;;;;-5.95;88.93;99579.14;1626303;87;20180;-69
2021/12/28 11:19:06;;;;;;;;;;;;;;;-5.94;89.54;99574.11;1652631;85;20488;-69
2021/12/28 11:21:39;;;;;;;;;;;;;;;-5.89;88.92;99569.78;1649837;86;20126;-70
2021/12/28 11:24:13;;;;;;;;;;;;;;;-5.86;88.20;99567.99;1627500;87;20115;-67
2021/12/28 11:26:42;;;;;;;;;;;;;;;-5.85;88.05;99562.95;1653129;86;20147;-68
2021/12/28 11:29:20;;;;;;;;;;;;;;;-5.84;87.54;99556.58;1652549;86;20249;-68
2021/12/28 11:32:01;;;;;;;;;;;;;;;-5.81;86.45;99560.69;1640266;85;20598;-68
2021/12/28 11:34:42;;;;;;;;;;;;;;;-5.81;86.74;99566.03;1637123;87;20114;-66
2021/12/28 11:37:12;;;;;;;;;;;;;;;-5.76;86.86;99565.68;1631674;87;20094;-67
2021/12/28 11:39:43;;;;;;;;;;;;;;;-5.75;86.14;99567.33;1637618;86;20122;-67
2021/12/28 11:42:20;;;;;;;;;;;;;;;-5.75;85.98;99555.80;1644492;87;20105;-71
2021/12/28 11:44:44;;;;;;;;;;;;;;;-5.76;84.44;99552.83;1648208;87;21131;-69
2021/12/28 11:47:19;;;;;;;;;;;;;;;-5.81;84.51;99545.47;1643634;86;20249;-70
2021/12/28 11:49:53;;;;;;;;;;;;;;;-5.80;84.74;99549.78;1621387;87;20086;-72
2021/12/28 11:52:21;;;;;;;;;;;;;;;-5.81;83.52;99547.31;1652395;86;20122;-70
2021/12/28 11:54:52;;;;;;;;;;;;;;;-5.83;83.75;99539.50;1622189;87;20138;-72
2021/12/28 11:57:26;;;;;;;;;;;;;;;-5.81;83.59;99540.11;1621835;87;20124;-71
2021/12/28 12:00:06;;;;;;;;;;;;;;;-5.80;83.32;99536.92;1619293;87;20130;-74
2021/12/28 12:02:47;;;;;;;;;;;;;;;-5.80;82.73;99534.25;1640512;86;20527;-72
2021/12/28 12:05:13;;;;;;;;;;;;;;;-5.84;82.37;99532.52;1635464;87;20775;-71
2021/12/28 12:07:43;;;;;;;;;;;;;;;-5.85;82.11;99532.21;1638517;87;20094;-77
2021/12/28 12:10:27;;;;;;;;;;;;;;;-5.85;82.46;99531.39;1639700;87;21226;-76
2021/12/28 12:12:54;;;;;;;;;;;;;;;-5.85;82.68;99528.20;1622943;88;20427;-74
2021/12/28 12:15:29;;;;;;;;;;;;;;;-5.84;82.40;99525.83;1624237;87;20195;-76
2021/12/28 12:18:03;;;;;;;;;;;;;;;-5.86;81.43;99521.72;1624207;88;20431;-75
2021/12/28 12:20:34;;;;;;;;;;;;;;;-5.86;81.87;99522.55;1624533;88;20462;-74
2021/12/28 12:23:07;;;;;;;;;;;;;;;-5.87;81.75;99522.23;1625370;88;21505;-75
2021/12/28 12:25:47;;;;;;;;;;;;;;;-5.86;81.52;99515.04;1624541;88;20108;-74
2021/12/28 12:28:16;;;;;;;;;;;;;;;-5.89;81.32;99514.97;1625110;88;20562;-79
2021/12/28 12:30:46;;;;;;;;;;;;;;;-5.93;81.28;99514.27;1604830;88;20210;-75
2021/12/28 12:33:17;;;;;;;;;;;;;;;-5.96;81.07;99515.51;1624425;88;20169;-71
2021/12/28 12:35:50;;;;;;;;;;;;;;;-6.03;81.73;99522.20;1625054;88;21562;-84
2021/12/28 12:38:29;;;;;;;;;;;;;;;-6.10;81.93;99516.56;1604840;88;20145;-70
2021/12/28 12:41:11;;;;;;;;;;;;;;;-6.14;82.49;99513.48;1639436;86;20162;-68
2021/12/28 12:43:45;;;;;;;;;;;;;;;-6.20;83.02;99516.98;1614772;87;20156;-69
2021/12/28 12:46:20;;;;;;;;;;;;;;;-6.22;83.82;99525.73;1627406;86;20171;-73
2021/12/28 12:48:58;;;;;;;;;;;;;;;-6.26;84.53;99519.67;1650265;86;20167;-79
2021/12/28 12:51:29;;;;;;;;;;;;;;;-6.32;85.32;99515.98;1634912;86;20180;-76